This is the latest recevied weather packets stored in our database for station/object N5AJY. If no packets are shown the sender has not sent any weather packets the latest 10 day(s).
| Time | Temp. | Humidity | Pressure | Rain* | Wind** | Luminosity | Snow |
|---|---|---|---|---|---|---|---|
| 1777143402 | 24.44° C | 68% | 1003.4 hPa | 0 mm | - | - | - |
| 1777143107 | 24.44° C | 69% | 1003.4 hPa | 0 mm | - | - | - |
| 1777142803 | 24.44° C | 67% | 1003.5 hPa | 0 mm | - | - | - |
| 1777142203 | 24.44° C | 67% | 1003.6 hPa | 0 mm | - | - | - |
| 1777141904 | 24.44° C | 67% | 1003.7 hPa | 0 mm | - | - | - |
| 1777141603 | 24.44° C | 66% | 1003.6 hPa | 0 mm | - | - | - |
| 1777141003 | 23.33° C | 70% | 1003.8 hPa | 0 mm | - | - | - |
| 1777140710 | 23.33° C | 71% | 1003.8 hPa | 0 mm | - | - | - |
| 1777140402 | 23.33° C | 71% | 1004 hPa | 0 mm | - | - | - |
| 1777140106 | 22.78° C | 72% | 1004.1 hPa | 0 mm | - | - | - |
| 1777139502 | 22.22° C | 75% | 1004.3 hPa | 0 mm | - | - | - |
| 1777139203 | 21.67° C | 76% | 1004.4 hPa | 0 mm | - | - | - |
| 1777138905 | 21.67° C | 77% | 1004.4 hPa | 0 mm | - | - | - |
| 1777138602 | 21.11° C | 78% | 1004.6 hPa | 0 mm | - | - | - |
| 1777138002 | 21.11° C | 78% | 1004.7 hPa | 0 mm | - | - | - |
| 1777137705 | 21.11° C | 78% | 1004.7 hPa | 0 mm | - | - | - |
| 1777137403 | 21.11° C | 81% | 1004.8 hPa | 0 mm | - | - | - |
| 1777136802 | 20° C | 82% | 1005 hPa | 0 mm | - | - | - |
| 1777136203 | 19.44° C | 84% | 1005 hPa | 0 mm | - | - | - |
| 1777135604 | 19.44° C | 88% | 1005.3 hPa | 0 mm | - | - | - |
| 1777135002 | 18.89° C | 91% | 1005.4 hPa | 0 mm | - | - | - |
| 1777134707 | 18.89° C | 91% | 1005.4 hPa | 0 mm | - | - | - |
| 1777133806 | 17.78° C | 97% | 1005.5 hPa | 0 mm | - | - | - |
| 1777133503 | 17.22° C | 97% | 1005.5 hPa | 0 mm | - | - | - |
| 1777133202 | 17.22° C | 97% | 1005.5 hPa | 0 mm | - | - | - |
* Rain latest hour (hover to see other rain measurements)
** Current wind speed in m/s (hover to see current wind gust speed)